Time;durP1;ratioP1;P1;durP2;ratioP2;P2;SDS_P1;SDS_P2;PMS_P1;PMS_P2;Temp;Humidity;BMP_temperature;BMP_pressure;BME280_temperature;BME280_humidity;BME280_pressure;Samples;Min_cycle;Max_cycle;Signal;HPM_P1;HPM_P2
2023/02/13 00:01:25;;;;;;;13.90;4.10;;;;;;;13.60;25.64;101448.91;108055;1254;75101;-65
2023/02/13 00:03:59;;;;;;;11.20;4.40;;;;;;;13.28;25.85;101454.71;108067;1254;71008;-65
2023/02/13 00:06:27;;;;;;;12.90;4.50;;;;;;;13.30;25.94;101450.95;108084;1253;72096;-65
2023/02/13 00:08:55;;;;;;;11.50;4.00;;;;;;;13.47;25.64;101449.27;108099;1254;62546;-65
2023/02/13 00:11:28;;;;;;;9.70;3.40;;;;;;;13.46;25.60;101444.39;108129;1253;61551;-66
2023/02/13 00:13:57;;;;;;;10.10;4.70;;;;;;;13.21;25.90;101446.61;108077;1254;74333;-65
2023/02/13 00:16:26;;;;;;;7.90;3.20;;;;;;;13.40;25.66;101437.29;108126;1253;69924;-65
2023/02/13 00:19:02;;;;;;;7.10;3.80;;;;;;;13.47;25.59;101435.17;108081;1254;73869;-66
2023/02/13 00:21:34;;;;;;;9.80;3.70;;;;;;;13.28;25.62;101431.45;108006;1254;60940;-65
2023/02/13 00:24:04;;;;;;;8.70;3.20;;;;;;;13.22;25.76;101431.78;108128;1253;61349;-65
2023/02/13 00:26:33;;;;;;;11.50;4.10;;;;;;;13.33;25.62;101427.27;108073;1253;74807;-66
2023/02/13 00:29:05;;;;;;;10.80;4.40;;;;;;;13.22;25.72;101424.57;108090;1254;71308;-65
2023/02/13 00:31:35;;;;;;;12.60;4.10;;;;;;;13.58;25.35;101427.60;108059;1254;72876;-64
2023/02/13 00:34:03;;;;;;;10.30;3.80;;;;;;;13.69;25.26;101420.06;108107;1253;62996;-66
2023/02/13 00:36:32;;;;;;;7.20;3.80;;;;;;;13.74;25.11;101420.98;108023;1253;157965;-65
2023/02/13 00:40:07;;;;;;;5.90;3.10;;;;;;;9.46;30.82;101434.33;104925;1291;600398;-64
2023/02/13 00:42:35;;;;;;;8.30;3.70;;;;;;;12.25;26.92;101424.52;107291;1265;62060;-63
2023/02/13 00:45:07;;;;;;;6.30;3.70;;;;;;;12.76;26.51;101421.52;107188;1266;60593;-65
2023/02/13 00:47:35;;;;;;;7.70;3.60;;;;;;;12.70;26.41;101414.08;107264;1270;71983;-65
2023/02/13 00:50:04;;;;;;;13.40;3.70;;;;;;;12.85;26.37;101409.81;107430;1264;71201;-65
2023/02/13 00:52:32;;;;;;;6.80;3.60;;;;;;;12.65;26.47;101408.23;107894;1256;72620;-66
2023/02/13 00:55:00;;;;;;;9.00;3.40;;;;;;;12.50;26.58;101402.61;107613;1254;61975;-64
2023/02/13 00:57:38;;;;;;;8.10;3.50;;;;;;;12.50;26.65;101397.69;108016;1254;61083;-66
2023/02/13 01:00:07;;;;;;;8.70;3.60;;;;;;;12.25;26.88;101398.28;108047;1254;73492;-65
2023/02/13 01:02:36;;;;;;;10.40;3.60;;;;;;;12.08;27.24;101400.28;108137;1257;71277;-65
2023/02/13 01:05:06;;;;;;;7.60;3.30;;;;;;;12.11;27.17;101398.97;108007;1253;73691;-64
2023/02/13 01:07:35;;;;;;;8.20;3.70;;;;;;;12.08;27.06;101399.21;107935;1256;63339;-65
2023/02/13 01:10:05;;;;;;;11.60;4.00;;;;;;;12.15;27.02;101398.71;108017;1256;61066;-63
2023/02/13 01:12:34;;;;;;;7.40;3.90;;;;;;;12.46;26.69;101396.72;107999;1256;74280;-65
2023/02/13 01:15:03;;;;;;;9.10;3.50;;;;;;;12.44;26.66;101395.89;107970;1256;70254;-65
2023/02/13 01:17:33;;;;;;;7.30;3.20;;;;;;;12.17;26.90;101388.25;107961;1256;71871;-66
2023/02/13 01:20:02;;;;;;;8.60;3.50;;;;;;;12.01;27.11;101390.42;107930;1256;62000;-66
2023/02/13 01:22:34;;;;;;;7.30;3.30;;;;;;;12.15;27.10;101387.78;107952;1256;60562;-67
2023/02/13 01:25:03;;;;;;;8.10;3.80;;;;;;;12.31;26.89;101381.58;108049;1259;74166;-64
2023/02/13 01:27:32;;;;;;;6.50;3.30;;;;;;;12.39;26.80;101375.92;107966;1256;71139;-63
2023/02/13 01:30:01;;;;;;;9.10;3.60;;;;;;;11.98;27.33;101377.42;108115;1253;73042;-64
2023/02/13 01:32:30;;;;;;;8.00;3.60;;;;;;;12.21;27.20;101376.39;108097;1253;63447;-66
2023/02/13 01:34:58;;;;;;;8.80;3.80;;;;;;;12.13;27.26;101376.73;108051;1253;60345;-66
2023/02/13 01:37:30;;;;;;;12.80;3.50;;;;;;;12.06;27.44;101381.14;108113;1253;72967;-65
2023/02/13 01:40:02;;;;;;;17.80;3.80;;;;;;;12.10;27.41;101380.67;108132;1257;71595;-65
2023/02/13 01:42:32;;;;;;;11.40;3.90;;;;;;;11.77;27.70;101379.64;107956;1253;72852;-65
2023/02/13 01:45:23;;;;;;;10.50;4.00;;;;;;;11.77;27.74;101377.89;108143;1253;62364;-65
2023/02/13 01:48:24;;;;;;;7.70;3.40;;;;;;;11.95;27.52;101374.52;108147;1253;61188;-64
2023/02/13 01:51:03;;;;;;;;;;;;;;;12.07;27.29;101370.20;107932;1254;74059;-63
2023/02/13 01:53:32;;;;;;;7.10;3.30;;;;;;;12.04;27.33;101366.38;108125;1253;69540;-64
2023/02/13 01:56:28;;;;;;;12.70;3.90;;;;;;;12.00;27.41;101361.72;108159;1253;73936;-65
2023/02/13 01:59:00;;;;;;;11.30;3.20;;;;;;;11.88;27.56;101361.47;108000;1253;61344;-65
2023/02/13 02:01:28;;;;;;;10.00;3.90;;;;;;;11.92;27.59;101360.85;108113;1253;60350;-66
2023/02/13 02:04:02;;;;;;;11.60;3.80;;;;;;;12.18;27.42;101353.02;108077;1254;74343;-65
2023/02/13 02:06:34;;;;;;;7.60;3.30;;;;;;;12.49;27.08;101346.29;108045;1253;70676;-65
2023/02/13 02:09:11;;;;;;;8.20;2.90;;;;;;;12.90;26.68;101340.25;108091;1253;70829;-65
2023/02/13 02:11:49;;;;;;;8.60;3.70;;;;;;;12.87;26.80;101341.02;108178;1253;61139;-65
2023/02/13 02:14:19;;;;;;;8.50;3.40;;;;;;;12.73;26.96;101344.61;108043;1253;61228;-65
2023/02/13 02:16:47;;;;;;;8.40;3.60;;;;;;;12.29;27.35;101342.38;108120;1253;73785;-65
2023/02/13 02:19:23;;;;;;;9.90;3.80;;;;;;;12.13;27.60;101347.68;108127;1253;70885;-64
2023/02/13 02:22:12;;;;;;;7.30;2.90;;;;;;;12.30;27.47;101346.21;108107;1256;72339;-64
2023/02/13 02:24:46;;;;;;;9.20;3.50;;;;;;;12.67;27.15;101343.69;108119;1253;62246;-66
2023/02/13 02:27:44;;;;;;;7.10;3.00;;;;;;;12.87;26.90;101346.34;108066;1253;61295;-64
2023/02/13 02:30:26;;;;;;;9.80;3.80;;;;;;;13.12;26.66;101345.98;107969;1253;74260;-64
2023/02/13 02:33:04;;;;;;;7.20;3.50;;;;;;;13.11;26.68;101345.48;108112;1253;69901;-66
2023/02/13 02:35:41;;;;;;;7.70;3.30;;;;;;;12.88;26.98;101341.89;108131;1253;73362;-65
2023/02/13 02:38:37;;;;;;;7.60;3.30;;;;;;;12.73;27.17;101336.65;108128;1253;62322;-65
2023/02/13 02:41:40;;;;;;;8.40;3.50;;;;;;;13.19;26.84;101334.86;108058;1253;61306;-64
2023/02/13 02:44:19;;;;;;;7.80;2.80;;;;;;;13.53;26.63;101328.95;108049;1253;72679;-65
2023/02/13 02:50:24;;;;;;;11.50;3.60;;;;;;;13.18;27.00;101330.69;108174;1253;73572;-65
2023/02/13 02:53:23;;;;;;;8.70;3.30;;;;;;;13.11;27.03;101329.09;108093;1253;62924;-64
2023/02/13 02:56:00;;;;;;;6.80;3.30;;;;;;;13.37;26.82;101331.20;108131;1253;61517;-66
2023/02/13 03:07:16;;;;;;;6.30;3.70;;;;;;;13.39;26.91;101319.13;108201;1253;62754;-65
2023/02/13 03:15:29;;;;;;;11.80;3.90;;;;;;;14.21;26.14;101308.59;108105;1253;71401;-64
2023/02/13 03:24:00;;;;;;;11.20;4.20;;;;;;;13.76;26.27;101308.48;107958;1253;61776;-62
2023/02/13 03:27:00;;;;;;;14.80;5.90;;;;;;;13.99;26.27;101307.59;108105;1253;73835;-63
2023/02/13 03:32:33;;;;;;;22.20;6.50;;;;;;;14.28;25.74;101301.31;108227;1253;72908;-64
2023/02/13 03:38:31;;;;;;;15.50;5.80;;;;;;;14.36;25.59;101294.70;107903;1253;60047;-65
2023/02/13 03:41:18;;;;;;;14.30;5.70;;;;;;;13.90;25.89;101284.40;108196;1253;73071;-65
2023/02/13 03:43:56;;;;;;;14.00;5.70;;;;;;;13.84;26.11;101277.00;108159;1253;69456;-65
2023/02/13 03:46:25;;;;;;;17.90;5.60;;;;;;;13.86;26.15;101272.86;108180;1256;73882;-64
2023/02/13 03:51:52;;;;;;;13.20;4.60;;;;;;;14.00;26.19;101275.95;108214;1253;59422;-64
2023/02/13 04:00:04;;;;;;;18.70;7.50;;;;;;;13.99;26.26;101266.95;108156;1253;73220;-65
2023/02/13 04:03:04;;;;;;;25.30;7.70;;;;;;;14.17;25.89;101259.66;108181;1253;62286;-65
2023/02/13 04:05:34;;;;;;;19.60;7.70;;;;;;;13.87;26.38;101256.95;108157;1252;61261;-65
2023/02/13 04:08:02;;;;;;;17.30;6.60;;;;;;;13.88;26.53;101255.87;108190;1253;72777;-65
2023/02/13 04:10:33;;;;;;;;;;;;;;;13.45;27.03;101256.45;108253;1254;69436;-66
2023/02/13 04:13:31;;;;;;;15.30;5.70;;;;;;;12.62;27.97;101258.36;108259;1253;72381;-66
2023/02/13 04:16:23;;;;;;;18.50;6.20;;;;;;;12.82;27.92;101259.58;108201;1253;61260;-66
2023/02/13 04:18:52;;;;;;;16.00;5.80;;;;;;;12.78;28.08;101247.18;107997;1252;59537;-65
2023/02/13 04:21:20;;;;;;;16.00;6.00;;;;;;;13.03;27.89;101242.23;108176;1253;72619;-65
2023/02/13 04:23:48;;;;;;;15.30;5.10;;;;;;;13.01;28.05;101244.40;108164;1253;70448;-65
2023/02/13 04:26:18;;;;;;;16.50;5.90;;;;;;;13.31;27.70;101242.66;108183;1253;73527;-65
2023/02/13 04:28:46;;;;;;;15.40;6.00;;;;;;;12.87;28.23;101243.58;108154;1253;62302;-63
2023/02/13 04:31:14;;;;;;;17.30;6.40;;;;;;;12.75;28.55;101245.50;108145;1253;60972;-65
2023/02/13 04:33:43;;;;;;;19.30;6.90;;;;;;;12.92;28.36;101243.60;108096;1253;71979;-65
2023/02/13 04:36:11;;;;;;;14.40;5.90;;;;;;;13.01;28.34;101242.28;108090;1253;71386;-64
2023/02/13 04:38:40;;;;;;;16.20;5.90;;;;;;;12.94;28.55;101238.60;107926;1253;73637;-64
2023/02/13 04:41:09;;;;;;;17.70;6.60;;;;;;;13.12;28.42;101235.45;108111;1253;62957;-64
2023/02/13 04:43:39;;;;;;;14.50;5.40;;;;;;;13.28;28.27;101225.62;108141;1257;60554;-63
2023/02/13 04:46:07;;;;;;;15.00;6.30;;;;;;;13.15;28.50;101227.95;108187;1253;73943;-65
2023/02/13 04:48:35;;;;;;;17.10;6.50;;;;;;;13.43;28.30;101235.23;108140;1253;70535;-64
2023/02/13 04:51:05;;;;;;;15.50;5.30;;;;;;;13.44;28.34;101233.27;108144;1257;72002;-64
2023/02/13 04:53:34;;;;;;;17.30;7.40;;;;;;;13.30;28.65;101240.55;108005;1253;62140;-65
2023/02/13 04:56:03;;;;;;;16.10;6.30;;;;;;;13.51;28.37;101239.04;108107;1253;61521;-64
2023/02/13 04:58:32;;;;;;;17.40;7.20;;;;;;;13.37;28.62;101239.66;108154;1253;74328;-66
2023/02/13 05:01:00;;;;;;;15.50;6.40;;;;;;;13.63;28.38;101237.94;107971;1253;71637;-65
2023/02/13 05:03:29;;;;;;;14.70;6.10;;;;;;;13.83;28.14;101239.42;107994;1253;72000;-66
2023/02/13 05:05:57;;;;;;;25.70;7.90;;;;;;;13.92;28.10;101228.89;108140;1253;60837;-66
2023/02/13 05:08:25;;;;;;;16.90;7.10;;;;;;;14.21;27.91;101234.09;108182;1253;60436;-67
2023/02/13 05:10:54;;;;;;;20.10;8.10;;;;;;;14.32;27.76;101233.70;108113;1253;74859;-65
2023/02/13 05:13:29;;;;;;;20.90;8.90;;;;;;;14.56;27.67;101233.05;108124;1253;70521;-66
2023/02/13 05:15:57;;;;;;;20.50;7.70;;;;;;;14.50;27.67;101235.21;108111;1253;73460;-65
2023/02/13 05:18:25;;;;;;;25.90;10.20;;;;;;;14.68;27.45;101240.60;107960;1253;60410;-66
2023/02/13 05:23:41;;;;;;;19.70;8.30;;;;;;;14.93;27.38;101236.66;108140;1253;73855;-64
2023/02/13 05:26:10;;;;;;;23.50;8.90;;;;;;;15.33;27.02;101231.78;108162;1253;71271;-64
2023/02/13 05:31:25;;;;;;;19.40;8.00;;;;;;;14.40;27.97;101233.41;108210;1254;61891;-66
2023/02/13 05:33:54;;;;;;;17.60;8.30;;;;;;;14.22;28.23;101231.40;108227;1252;61237;-63
2023/02/13 05:36:22;;;;;;;23.20;8.60;;;;;;;14.20;28.33;101229.54;108283;1253;75378;-65
2023/02/13 05:38:50;;;;;;;19.50;7.40;;;;;;;14.13;28.44;101237.36;108236;1253;69684;-65
2023/02/13 05:41:18;;;;;;;19.70;8.80;;;;;;;14.45;28.22;101239.25;108201;1253;72349;-64
2023/02/13 05:43:46;;;;;;;18.00;7.30;;;;;;;14.38;28.37;101240.20;108229;1256;61704;-66
2023/02/13 05:46:14;;;;;;;21.10;8.90;;;;;;;14.57;28.10;101237.79;108249;1253;60746;-66
2023/02/13 05:48:45;;;;;;;16.00;7.50;;;;;;;14.86;27.90;101237.83;108233;1256;74065;-65
2023/02/13 05:51:13;;;;;;;17.70;7.10;;;;;;;14.89;27.84;101238.23;108223;1253;70400;-66
2023/02/13 05:53:41;;;;;;;21.20;7.80;;;;;;;14.84;27.89;101237.52;108195;1253;73880;-66
2023/02/13 05:56:09;;;;;;;17.50;7.70;;;;;;;14.99;27.85;101234.84;108151;1253;62305;-65
2023/02/13 05:58:38;;;;;;;19.60;7.90;;;;;;;14.93;27.87;101238.25;108172;1253;60421;-67
2023/02/13 06:01:06;;;;;;;17.00;7.80;;;;;;;14.85;27.96;101237.50;108209;1253;74812;-66
2023/02/13 06:03:34;;;;;;;16.00;7.90;;;;;;;14.89;27.99;101231.67;108230;1254;70020;-65
2023/02/13 06:06:03;;;;;;;21.20;8.50;;;;;;;14.96;28.04;101229.84;108160;1253;73028;-66
2023/02/13 06:08:32;;;;;;;18.30;7.90;;;;;;;14.91;27.97;101230.02;108194;1257;61138;-67
2023/02/13 06:11:02;;;;;;;16.40;7.10;;;;;;;15.15;27.79;101218.86;108175;1259;60335;-64
2023/02/13 06:13:33;;;;;;;17.70;8.30;;;;;;;15.13;27.87;101221.40;108150;1254;74926;-65
2023/02/13 06:16:01;;;;;;;17.90;7.30;;;;;;;15.14;27.96;101216.58;108190;1253;70319;-64
2023/02/13 06:18:29;;;;;;;16.00;7.30;;;;;;;15.07;28.07;101215.60;108165;1253;74396;-66
2023/02/13 06:20:58;;;;;;;16.30;7.10;;;;;;;15.22;27.98;101209.92;108154;1254;61620;-65
2023/02/13 06:23:27;;;;;;;16.90;7.30;;;;;;;15.18;28.03;101203.33;107971;1258;61331;-67
2023/02/13 06:25:55;;;;;;;22.50;8.20;;;;;;;15.22;27.97;101195.05;108178;1254;74943;-64
2023/02/13 06:28:24;;;;;;;20.20;7.60;;;;;;;15.15;28.08;101196.02;108142;1256;71617;-64
2023/02/13 06:30:52;;;;;;;17.00;7.40;;;;;;;15.34;27.98;101193.34;108088;1253;72782;-65
2023/02/13 06:33:21;;;;;;;18.10;8.10;;;;;;;15.71;27.52;101184.22;108112;1252;62355;-65
2023/02/13 06:35:50;;;;;;;15.50;7.10;;;;;;;15.87;27.41;101183.93;108217;1253;61375;-64
2023/02/13 06:38:18;;;;;;;16.90;7.70;;;;;;;16.02;27.36;101181.19;108112;1254;74810;-65
2023/02/13 06:40:47;;;;;;;16.20;7.80;;;;;;;16.23;27.15;101183.61;108107;1255;71623;-65
2023/02/13 06:43:16;;;;;;;13.40;7.10;;;;;;;16.22;27.11;101185.46;108154;1253;73894;-64
2023/02/13 06:45:45;;;;;;;14.70;7.00;;;;;;;16.33;26.94;101179.81;108111;1254;62162;-66
2023/02/13 06:48:16;;;;;;;12.20;6.30;;;;;;;16.57;26.81;101176.97;108038;1258;60387;-66
2023/02/13 06:50:44;;;;;;;16.00;7.00;;;;;;;16.61;26.87;101177.48;107963;1255;74765;-65
2023/02/13 06:53:13;;;;;;;20.20;7.40;;;;;;;16.56;26.59;101167.60;108005;1253;70313;-67
2023/02/13 06:55:41;;;;;;;17.70;7.80;;;;;;;16.99;26.38;101163.20;108156;1257;73572;-68
2023/02/13 06:58:09;;;;;;;13.50;6.80;;;;;;;17.26;26.10;101161.02;108165;1258;61973;-66
2023/02/13 07:00:37;;;;;;;16.10;7.10;;;;;;;17.60;25.81;101162.00;108159;1254;60542;-65
2023/02/13 07:03:06;;;;;;;12.80;6.50;;;;;;;17.66;25.61;101159.05;108278;1254;75032;-65
2023/02/13 07:05:34;;;;;;;15.40;7.20;;;;;;;17.31;25.80;101159.51;108286;1258;70422;-65
2023/02/13 07:08:03;;;;;;;14.20;7.20;;;;;;;17.33;25.74;101154.80;108123;1253;73699;-66
2023/02/13 07:10:39;;;;;;;12.50;6.80;;;;;;;17.29;25.73;101150.20;108072;1255;60643;-66
2023/02/13 07:13:08;;;;;;;15.30;7.10;;;;;;;17.19;25.75;101142.90;108108;1257;59876;-63
2023/02/13 07:15:37;;;;;;;13.60;7.20;;;;;;;17.45;25.71;101138.60;108132;1254;75012;-66
2023/02/13 07:18:06;;;;;;;15.00;7.30;;;;;;;17.15;25.99;101131.02;108147;1253;71033;-65
2023/02/13 07:20:34;;;;;;;12.10;6.80;;;;;;;17.05;25.99;101129.55;108143;1257;73898;-66
2023/02/13 07:23:03;;;;;;;15.00;7.40;;;;;;;16.87;26.19;101130.91;108144;1255;62178;-64
2023/02/13 07:25:32;;;;;;;16.20;7.80;;;;;;;17.53;25.66;101128.46;108100;1253;60381;-65
2023/02/13 07:28:04;;;;;;;14.90;7.10;;;;;;;17.43;25.69;101127.48;108168;1252;74918;-65
2023/02/13 07:30:34;;;;;;;15.50;7.20;;;;;;;18.00;25.21;101124.83;108139;1255;69268;-64
2023/02/13 07:33:03;;;;;;;15.40;7.30;;;;;;;17.95;25.08;101124.18;108205;1256;73403;-66
2023/02/13 07:35:31;;;;;;;16.50;7.50;;;;;;;17.85;25.35;101121.55;108155;1254;62386;-63
2023/02/13 07:38:00;;;;;;;16.90;7.90;;;;;;;17.77;25.39;101114.96;108245;1254;61179;-65
2023/02/13 07:40:28;;;;;;;14.70;7.80;;;;;;;17.75;25.41;101112.26;108147;1254;75075;-67
2023/02/13 07:42:59;;;;;;;16.40;8.20;;;;;;;17.90;25.37;101116.12;108196;1254;71115;-66
2023/02/13 07:45:28;;;;;;;19.00;8.40;;;;;;;18.15;25.13;101120.13;108122;1255;74042;-66
2023/02/13 07:47:57;;;;;;;13.20;7.50;;;;;;;17.91;25.25;101116.63;108171;1254;62564;-66
2023/02/13 07:50:26;;;;;;;15.70;8.70;;;;;;;17.97;25.26;101114.83;108136;1257;60090;-66
2023/02/13 07:52:57;;;;;;;15.90;7.80;;;;;;;18.17;24.95;101114.70;108215;1253;75141;-65
2023/02/13 07:55:27;;;;;;;17.60;8.20;;;;;;;17.95;25.23;101115.30;108215;1254;70379;-63
2023/02/13 07:57:55;;;;;;;15.30;8.40;;;;;;;17.75;25.30;101116.52;108203;1254;72878;-65
2023/02/13 08:00:24;;;;;;;14.50;7.70;;;;;;;17.63;25.56;101112.28;108199;1252;61875;-63
2023/02/13 08:02:52;;;;;;;16.80;7.90;;;;;;;17.71;25.54;101105.31;108154;1254;61361;-67
2023/02/13 08:05:20;;;;;;;20.30;8.90;;;;;;;17.66;25.49;101100.59;108189;1255;74813;-66
2023/02/13 08:07:48;;;;;;;18.60;7.50;;;;;;;17.86;25.41;101094.97;108166;1257;71612;-66
2023/02/13 08:13:04;;;;;;;16.40;8.60;;;;;;;18.23;25.00;101092.69;108182;1254;62436;-67
2023/02/13 08:15:32;;;;;;;19.80;9.40;;;;;;;18.52;24.96;101093.83;108085;1254;61220;-66
2023/02/13 08:18:01;;;;;;;20.70;9.50;;;;;;;18.99;24.52;101094.54;108095;1255;75062;-65
2023/02/13 08:20:30;;;;;;;20.80;9.80;;;;;;;20.10;23.56;101092.64;108183;1255;71609;-66
2023/02/13 08:23:03;;;;;;;17.00;9.30;;;;;;;20.61;22.79;101087.05;108191;1255;73230;-67
2023/02/13 08:25:37;;;;;;;16.50;9.10;;;;;;;20.69;22.64;101090.58;108217;1253;60482;-66
2023/02/13 08:28:05;;;;;;;18.70;9.20;;;;;;;20.32;23.04;101086.70;108133;1255;60335;-66
2023/02/13 08:30:33;;;;;;;20.80;10.10;;;;;;;20.65;22.60;101080.33;108111;1255;74845;-68
2023/02/13 08:33:04;;;;;;;23.20;10.20;;;;;;;20.85;22.23;101083.66;108092;1254;71738;-67
2023/02/13 08:35:32;;;;;;;17.30;8.40;;;;;;;20.05;23.11;101086.38;108140;1254;73791;-66
2023/02/13 08:38:04;;;;;;;24.90;10.80;;;;;;;20.03;23.26;101086.49;108065;1254;60609;-66
2023/02/13 08:40:32;;;;;;;16.40;9.30;;;;;;;20.49;22.74;101078.65;108107;1253;61118;-67
2023/02/13 08:43:01;;;;;;;17.70;9.40;;;;;;;19.64;23.54;101088.52;108137;1256;74704;-64
2023/02/13 08:45:38;;;;;;;20.20;9.40;;;;;;;20.08;23.18;101085.98;108047;1254;71654;-67
2023/02/13 08:48:06;;;;;;;14.90;7.70;;;;;;;20.31;22.85;101085.52;108099;1254;73625;-66
2023/02/13 08:50:34;;;;;;;17.00;9.80;;;;;;;19.37;23.70;101089.89;107983;1254;60346;-65
2023/02/13 08:53:06;;;;;;;17.40;10.30;;;;;;;19.73;23.50;101090.84;108080;1254;60470;-66
2023/02/13 08:55:34;;;;;;;21.40;9.70;;;;;;;19.84;23.43;101083.96;108091;1256;73588;-66
2023/02/13 08:58:03;;;;;;;22.90;11.70;;;;;;;19.55;23.70;101077.83;108148;1255;71660;-67
2023/02/13 09:00:33;;;;;;;22.10;10.50;;;;;;;19.41;23.89;101077.33;108132;1257;73858;-66
2023/02/13 09:03:02;;;;;;;20.00;10.40;;;;;;;19.21;24.18;101073.18;108108;1254;60301;-67
2023/02/13 09:05:32;;;;;;;29.20;11.30;;;;;;;18.72;24.65;101077.37;108127;1253;61588;-67
2023/02/13 09:08:03;;;;;;;22.20;11.00;;;;;;;18.53;24.98;101079.53;108004;1253;75078;-66
2023/02/13 09:10:32;;;;;;;22.70;11.50;;;;;;;18.19;25.41;101086.17;108096;1254;70431;-65
2023/02/13 09:13:00;;;;;;;22.80;11.80;;;;;;;18.01;25.62;101084.64;108102;1253;73707;-66
2023/02/13 09:15:29;;;;;;;23.40;10.80;;;;;;;17.97;25.78;101087.66;108077;1254;62184;-67
2023/02/13 09:17:58;;;;;;;20.80;11.30;;;;;;;18.37;25.40;101081.59;108070;1253;61012;-66
2023/02/13 09:20:26;;;;;;;18.80;8.80;;;;;;;18.14;25.79;101070.80;108102;1256;74157;-65
2023/02/13 09:22:55;;;;;;;24.70;11.60;;;;;;;17.48;26.74;101069.00;108051;1253;70144;-66
2023/02/13 09:25:24;;;;;;;24.40;12.70;;;;;;;17.29;26.98;101064.66;108053;1254;73525;-67
2023/02/13 09:27:53;;;;;;;21.90;11.50;;;;;;;17.55;26.92;101056.98;108039;1253;62271;-67
2023/02/13 09:30:24;;;;;;;21.90;11.80;;;;;;;17.73;26.75;101056.06;108242;1253;61222;-65
2023/02/13 09:32:53;;;;;;;26.80;12.10;;;;;;;17.64;26.99;101047.98;107996;1253;73603;-66
2023/02/13 09:35:22;;;;;;;18.80;8.90;;;;;;;17.56;27.37;101041.11;108239;1254;69365;-65
2023/02/13 09:37:50;;;;;;;23.10;12.10;;;;;;;17.54;27.44;101042.30;108203;1252;73008;-66
2023/02/13 09:40:27;;;;;;;21.20;10.90;;;;;;;17.47;27.45;101035.69;108186;1255;62385;-65
2023/02/13 09:43:27;;;;;;;22.00;12.20;;;;;;;17.13;27.99;101025.53;108205;1252;61277;-66
2023/02/13 09:46:01;;;;;;;24.10;11.50;;;;;;;17.54;27.62;101014.94;108204;1253;73835;-65
2023/02/13 09:48:31;;;;;;;22.30;11.40;;;;;;;18.12;27.03;101005.46;108270;1254;70141;-66
2023/02/13 09:50:59;;;;;;;20.30;10.40;;;;;;;18.65;26.66;100998.98;108254;1252;72542;-67
2023/02/13 09:53:28;;;;;;;22.00;11.00;;;;;;;18.59;26.57;101000.39;108124;1253;61184;-67
2023/02/13 09:56:04;;;;;;;20.30;11.00;;;;;;;18.80;26.54;101000.48;108157;1254;61585;-64
2023/02/13 09:58:35;;;;;;;26.30;11.70;;;;;;;18.91;26.40;100998.58;108241;1254;74955;-67
2023/02/13 10:01:05;;;;;;;21.40;11.30;;;;;;;18.84;26.37;100999.84;108184;1254;71335;-66
2023/02/13 10:03:49;;;;;;;21.90;11.80;;;;;;;18.97;26.59;100995.02;108186;1255;73782;-66
2023/02/13 10:06:48;;;;;;;29.70;12.90;;;;;;;19.17;26.25;100994.39;108251;1253;61972;-67
2023/02/13 10:09:46;;;;;;;21.70;11.10;;;;;;;18.94;26.48;100994.11;108126;1252;60426;-67
2023/02/13 10:12:40;;;;;;;20.10;11.70;;;;;;;18.76;26.79;100991.99;108226;1252;75106;-66
2023/02/13 10:15:45;;;;;;;18.60;10.50;;;;;;;19.35;26.35;100995.66;108194;1254;71037;-66
2023/02/13 10:18:16;;;;;;;28.70;12.20;;;;;;;19.58;26.03;100998.56;107954;1253;73791;-66
2023/02/13 10:20:49;;;;;;;23.40;10.80;;;;;;;19.43;26.03;100992.29;108021;1253;62112;-67
2023/02/13 10:23:29;;;;;;;21.50;12.10;;;;;;;19.16;26.53;100995.01;108217;1254;59903;-66
2023/02/13 10:26:00;;;;;;;27.30;12.50;;;;;;;18.98;26.66;100991.59;108085;1254;75037;-66
2023/02/13 10:28:42;;;;;;;21.70;11.60;;;;;;;19.51;26.33;100983.48;108063;1254;71553;-66
2023/02/13 10:31:16;;;;;;;22.00;11.60;;;;;;;19.74;26.22;100981.57;108163;1253;72926;-66
2023/02/13 10:33:49;;;;;;;19.20;10.40;;;;;;;20.03;25.91;100977.46;108174;1253;62177;-66
2023/02/13 10:36:24;;;;;;;20.20;11.30;;;;;;;19.98;25.72;100976.30;108145;1253;61603;-67
2023/02/13 10:38:57;;;;;;;20.70;11.20;;;;;;;19.77;26.06;100976.19;108138;1252;73531;-66
2023/02/13 10:41:43;;;;;;;20.50;11.40;;;;;;;19.72;26.12;100973.98;108196;1253;69966;-66
2023/02/13 10:44:34;;;;;;;24.40;12.80;;;;;;;19.48;26.49;100968.30;108126;1253;73302;-66
2023/02/13 10:47:09;;;;;;;20.20;12.60;;;;;;;19.28;26.94;100969.74;108181;1253;61636;-66
2023/02/13 10:49:56;;;;;;;26.90;14.00;;;;;;;19.41;26.65;100967.14;108230;1253;60280;-66
2023/02/13 10:52:36;;;;;;;27.20;12.90;;;;;;;19.42;26.73;100968.48;108125;1254;74929;-66
2023/02/13 10:55:33;;;;;;;23.00;11.40;;;;;;;19.65;26.52;100973.91;108219;1254;70533;-66
2023/02/13 10:58:05;;;;;;;20.30;11.80;;;;;;;19.54;26.76;100971.70;108198;1252;73941;-64
2023/02/13 11:00:39;;;;;;;23.80;13.00;;;;;;;19.37;26.95;100971.82;108101;1254;61544;-67
2023/02/13 11:03:18;;;;;;;19.70;11.20;;;;;;;19.37;27.13;100975.22;108170;1253;61221;-66
2023/02/13 11:05:47;;;;;;;26.80;13.10;;;;;;;19.46;26.99;100973.96;108048;1257;75027;-65
2023/02/13 11:08:20;;;;;;;18.30;11.00;;;;;;;20.11;26.54;100965.52;108091;1254;69333;-67
2023/02/13 11:10:48;;;;;;;21.00;11.80;;;;;;;19.70;26.96;100964.18;108160;1254;73572;-66
2023/02/13 11:13:24;;;;;;;22.20;12.20;;;;;;;20.11;26.70;100965.50;108108;1254;62331;-67
2023/02/13 11:16:00;;;;;;;20.20;12.30;;;;;;;20.52;26.18;100962.73;108263;1254;61296;-66
2023/02/13 11:18:36;;;;;;;26.60;12.80;;;;;;;19.98;26.67;100965.02;108205;1254;75094;-65
2023/02/13 11:21:20;;;;;;;26.90;12.60;;;;;;;19.81;26.84;100963.11;108196;1254;71578;-67
2023/02/13 11:23:52;;;;;;;25.80;13.60;;;;;;;19.92;27.10;100966.69;108037;1254;72340;-66
2023/02/13 11:26:34;;;;;;;26.10;13.10;;;;;;;20.09;27.00;100967.42;108135;1254;62087;-67
2023/02/13 11:29:15;;;;;;;23.60;11.50;;;;;;;19.93;27.05;100960.57;108081;1254;60467;-67
2023/02/13 11:31:43;;;;;;;23.30;12.80;;;;;;;19.91;27.78;100957.30;107995;1255;74246;-67
2023/02/13 11:34:21;;;;;;;25.60;13.60;;;;;;;19.22;28.72;100959.56;108045;1254;69494;-62
2023/02/13 11:36:51;;;;;;;25.60;11.50;;;;;;;19.71;28.18;100952.87;108072;1257;73899;-66
2023/02/13 11:39:20;;;;;;;21.20;11.80;;;;;;;19.79;28.42;100946.88;108107;1254;60456;-65
2023/02/13 11:41:52;;;;;;;22.70;12.50;;;;;;;20.04;27.83;100943.50;108129;1253;61151;-68
2023/02/13 11:44:30;;;;;;;25.30;12.10;;;;;;;19.93;28.02;100942.26;108134;1257;74510;-66
2023/02/13 11:46:59;;;;;;;22.50;12.00;;;;;;;19.58;28.63;100936.95;108157;1253;71239;-67
2023/02/13 11:49:46;;;;;;;26.60;13.60;;;;;;;19.58;28.49;100934.05;108155;1253;73546;-68
2023/02/13 11:52:28;;;;;;;24.10;12.80;;;;;;;20.11;28.02;100929.34;107791;1253;62001;-67
2023/02/13 11:55:01;;;;;;;23.30;12.30;;;;;;;20.56;27.51;100924.83;108116;1254;60322;-67
2023/02/13 11:57:34;;;;;;;25.40;12.90;;;;;;;20.62;27.08;100920.48;108088;1253;73822;-66
2023/02/13 12:00:36;;;;;;;20.40;11.20;;;;;;;20.27;27.81;100912.27;108097;1253;70279;-66
2023/02/13 12:03:20;;;;;;;23.10;11.90;;;;;;;20.03;28.10;100906.81;108120;1253;73731;-66
2023/02/13 12:06:06;;;;;;;19.50;11.60;;;;;;;20.08;28.08;100899.05;108060;1253;61467;-67
2023/02/13 12:08:36;;;;;;;24.30;11.10;;;;;;;20.32;27.51;100897.27;108083;1254;61452;-66
2023/02/13 12:11:27;;;;;;;20.30;11.40;;;;;;;20.16;27.80;100890.83;108110;1254;74464;-66
2023/02/13 12:13:55;;;;;;;24.10;12.40;;;;;;;20.44;27.40;100889.00;108056;1253;69621;-66
2023/02/13 12:16:49;;;;;;;19.00;10.70;;;;;;;21.23;26.89;100883.16;108071;1258;73741;-67
2023/02/13 12:19:22;;;;;;;19.80;11.20;;;;;;;20.90;27.16;100880.03;108107;1253;60353;-65
2023/02/13 12:22:06;;;;;;;21.40;11.50;;;;;;;20.42;27.56;100882.52;108177;1253;60505;-67
2023/02/13 12:25:01;;;;;;;20.40;11.80;;;;;;;20.38;27.56;100881.58;108093;1254;75587;-67